sensor_id;sensor_type;location;lat;lon;timestamp;P1;durP1;ratioP1;P2;durP2;ratioP2
63350;SDS011;64988;51.058;17.040;2023-08-24T00:00:37;12.25;;;7.72;;
63350;SDS011;64988;51.058;17.040;2023-08-24T00:06:04;14.02;;;7.57;;
63350;SDS011;64988;51.058;17.040;2023-08-24T00:11:32;17.30;;;8.30;;
63350;SDS011;64988;51.058;17.040;2023-08-24T00:16:59;16.77;;;8.35;;
63350;SDS011;64988;51.058;17.040;2023-08-24T00:22:26;11.40;;;7.82;;
63350;SDS011;64988;51.058;17.040;2023-08-24T00:27:54;13.20;;;7.97;;
63350;SDS011;64988;51.058;17.040;2023-08-24T00:33:21;12.45;;;7.22;;
63350;SDS011;64988;51.058;17.040;2023-08-24T00:38:48;15.85;;;8.65;;
63350;SDS011;64988;51.058;17.040;2023-08-24T00:44:18;12.93;;;8.45;;
63350;SDS011;64988;51.058;17.040;2023-08-24T00:49:45;13.75;;;7.95;;
63350;SDS011;64988;51.058;17.040;2023-08-24T00:55:12;16.17;;;7.97;;
63350;SDS011;64988;51.058;17.040;2023-08-24T01:00:39;14.20;;;8.70;;
63350;SDS011;64988;51.058;17.040;2023-08-24T01:06:07;17.33;;;8.80;;
63350;SDS011;64988;51.058;17.040;2023-08-24T01:17:06;14.73;;;7.65;;
63350;SDS011;64988;51.058;17.040;2023-08-24T01:28:07;13.23;;;7.55;;
63350;SDS011;64988;51.058;17.040;2023-08-24T01:33:35;13.95;;;7.72;;
63350;SDS011;64988;51.058;17.040;2023-08-24T01:39:22;14.85;;;7.45;;
63350;SDS011;64988;51.058;17.040;2023-08-24T01:44:52;11.75;;;7.70;;
63350;SDS011;64988;51.058;17.040;2023-08-24T01:50:21;12.43;;;7.78;;
63350;SDS011;64988;51.058;17.040;2023-08-24T01:55:48;10.25;;;6.95;;
63350;SDS011;64988;51.058;17.040;2023-08-24T02:01:15;13.90;;;7.43;;
63350;SDS011;64988;51.058;17.040;2023-08-24T02:06:42;9.80;;;7.68;;
63350;SDS011;64988;51.058;17.040;2023-08-24T02:12:09;13.90;;;7.82;;
63350;SDS011;64988;51.058;17.040;2023-08-24T02:17:36;15.07;;;7.75;;
63350;SDS011;64988;51.058;17.040;2023-08-24T02:23:04;16.95;;;7.38;;
63350;SDS011;64988;51.058;17.040;2023-08-24T02:28:32;13.73;;;7.90;;
63350;SDS011;64988;51.058;17.040;2023-08-24T02:33:59;12.80;;;7.35;;
63350;SDS011;64988;51.058;17.040;2023-08-24T02:39:27;15.70;;;7.72;;
63350;SDS011;64988;51.058;17.040;2023-08-24T02:44:54;10.82;;;7.45;;
63350;SDS011;64988;51.058;17.040;2023-08-24T02:50:21;11.90;;;7.95;;
63350;SDS011;64988;51.058;17.040;2023-08-24T02:55:48;22.98;;;7.65;;
63350;SDS011;64988;51.058;17.040;2023-08-24T03:01:14;12.48;;;7.90;;
63350;SDS011;64988;51.058;17.040;2023-08-24T03:06:43;15.43;;;7.43;;
63350;SDS011;64988;51.058;17.040;2023-08-24T03:12:10;13.65;;;8.45;;
63350;SDS011;64988;51.058;17.040;2023-08-24T03:17:38;16.83;;;8.27;;
63350;SDS011;64988;51.058;17.040;2023-08-24T03:23:05;19.88;;;9.30;;
63350;SDS011;64988;51.058;17.040;2023-08-24T03:28:32;13.88;;;7.93;;
63350;SDS011;64988;51.058;17.040;2023-08-24T03:34:00;10.27;;;7.82;;
63350;SDS011;64988;51.058;17.040;2023-08-24T03:39:26;13.63;;;8.07;;
63350;SDS011;64988;51.058;17.040;2023-08-24T03:44:54;12.73;;;7.03;;
63350;SDS011;64988;51.058;17.040;2023-08-24T03:50:21;17.92;;;8.82;;
63350;SDS011;64988;51.058;17.040;2023-08-24T03:55:53;18.33;;;9.20;;
63350;SDS011;64988;51.058;17.040;2023-08-24T04:01:21;14.65;;;9.48;;
63350;SDS011;64988;51.058;17.040;2023-08-24T04:06:49;15.23;;;9.35;;
63350;SDS011;64988;51.058;17.040;2023-08-24T04:12:16;15.15;;;7.70;;
63350;SDS011;64988;51.058;17.040;2023-08-24T04:17:43;14.00;;;7.78;;
63350;SDS011;64988;51.058;17.040;2023-08-24T04:23:12;13.88;;;7.65;;
63350;SDS011;64988;51.058;17.040;2023-08-24T04:28:39;14.65;;;8.00;;
63350;SDS011;64988;51.058;17.040;2023-08-24T04:34:06;12.35;;;6.82;;
63350;SDS011;64988;51.058;17.040;2023-08-24T04:39:33;17.95;;;7.65;;
63350;SDS011;64988;51.058;17.040;2023-08-24T04:45:00;11.70;;;6.68;;
63350;SDS011;64988;51.058;17.040;2023-08-24T04:50:28;12.48;;;6.95;;
63350;SDS011;64988;51.058;17.040;2023-08-24T04:55:56;12.40;;;7.25;;
63350;SDS011;64988;51.058;17.040;2023-08-24T05:01:23;11.18;;;5.90;;
63350;SDS011;64988;51.058;17.040;2023-08-24T05:06:51;9.98;;;5.60;;
63350;SDS011;64988;51.058;17.040;2023-08-24T05:12:18;7.50;;;5.30;;
63350;SDS011;64988;51.058;17.040;2023-08-24T05:17:46;8.75;;;5.57;;
63350;SDS011;64988;51.058;17.040;2023-08-24T05:23:14;8.07;;;4.95;;
63350;SDS011;64988;51.058;17.040;2023-08-24T05:28:44;6.97;;;4.60;;
63350;SDS011;64988;51.058;17.040;2023-08-24T05:34:11;7.20;;;4.28;;
63350;SDS011;64988;51.058;17.040;2023-08-24T05:39:38;9.73;;;4.50;;
63350;SDS011;64988;51.058;17.040;2023-08-24T05:45:06;8.18;;;4.72;;
63350;SDS011;64988;51.058;17.040;2023-08-24T05:50:33;7.97;;;4.50;;
63350;SDS011;64988;51.058;17.040;2023-08-24T05:56:01;4.50;;;3.42;;
63350;SDS011;64988;51.058;17.040;2023-08-24T06:01:28;4.03;;;3.10;;
63350;SDS011;64988;51.058;17.040;2023-08-24T06:06:57;4.32;;;3.47;;
63350;SDS011;64988;51.058;17.040;2023-08-24T06:12:24;5.88;;;3.38;;
63350;SDS011;64988;51.058;17.040;2023-08-24T06:17:51;5.82;;;3.40;;
63350;SDS011;64988;51.058;17.040;2023-08-24T06:23:19;4.88;;;3.15;;
63350;SDS011;64988;51.058;17.040;2023-08-24T06:28:48;3.83;;;2.83;;
63350;SDS011;64988;51.058;17.040;2023-08-24T06:34:15;5.93;;;2.92;;
63350;SDS011;64988;51.058;17.040;2023-08-24T06:39:42;4.68;;;3.17;;
63350;SDS011;64988;51.058;17.040;2023-08-24T06:45:10;6.88;;;2.90;;
63350;SDS011;64988;51.058;17.040;2023-08-24T06:50:38;4.38;;;2.25;;
63350;SDS011;64988;51.058;17.040;2023-08-24T06:56:06;2.75;;;2.15;;
63350;SDS011;64988;51.058;17.040;2023-08-24T07:01:33;7.47;;;2.90;;
63350;SDS011;64988;51.058;17.040;2023-08-24T07:07:01;4.80;;;2.45;;
63350;SDS011;64988;51.058;17.040;2023-08-24T07:12:28;5.05;;;2.53;;
63350;SDS011;64988;51.058;17.040;2023-08-24T07:18:00;5.95;;;2.90;;
63350;SDS011;64988;51.058;17.040;2023-08-24T07:23:27;5.78;;;3.35;;
63350;SDS011;64988;51.058;17.040;2023-08-24T07:28:55;7.93;;;2.80;;
63350;SDS011;64988;51.058;17.040;2023-08-24T07:34:22;6.40;;;2.65;;
63350;SDS011;64988;51.058;17.040;2023-08-24T07:39:50;7.27;;;2.03;;
63350;SDS011;64988;51.058;17.040;2023-08-24T07:45:17;4.38;;;2.35;;
63350;SDS011;64988;51.058;17.040;2023-08-24T07:50:44;3.53;;;2.30;;
63350;SDS011;64988;51.058;17.040;2023-08-24T07:56:12;3.17;;;1.95;;
63350;SDS011;64988;51.058;17.040;2023-08-24T08:01:38;4.97;;;2.40;;
63350;SDS011;64988;51.058;17.040;2023-08-24T08:07:05;5.63;;;2.22;;
63350;SDS011;64988;51.058;17.040;2023-08-24T08:12:33;5.88;;;2.60;;
63350;SDS011;64988;51.058;17.040;2023-08-24T08:18:00;2.50;;;1.80;;
63350;SDS011;64988;51.058;17.040;2023-08-24T08:23:27;7.93;;;2.90;;
63350;SDS011;64988;51.058;17.040;2023-08-24T08:28:54;5.03;;;2.35;;
63350;SDS011;64988;51.058;17.040;2023-08-24T08:34:21;2.30;;;1.80;;
63350;SDS011;64988;51.058;17.040;2023-08-24T08:39:48;4.53;;;1.95;;
63350;SDS011;64988;51.058;17.040;2023-08-24T08:45:15;4.93;;;2.00;;
63350;SDS011;64988;51.058;17.040;2023-08-24T08:50:43;6.80;;;1.88;;
63350;SDS011;64988;51.058;17.040;2023-08-24T08:56:10;2.38;;;2.10;;
63350;SDS011;64988;51.058;17.040;2023-08-24T09:01:39;2.60;;;2.03;;
63350;SDS011;64988;51.058;17.040;2023-08-24T09:07:07;4.00;;;1.63;;
63350;SDS011;64988;51.058;17.040;2023-08-24T09:12:37;2.10;;;1.90;;
63350;SDS011;64988;51.058;17.040;2023-08-24T09:18:04;4.25;;;2.25;;
63350;SDS011;64988;51.058;17.040;2023-08-24T09:23:32;1.88;;;1.77;;
63350;SDS011;64988;51.058;17.040;2023-08-24T09:29:00;2.95;;;1.90;;
63350;SDS011;64988;51.058;17.040;2023-08-24T09:34:27;2.22;;;1.90;;
63350;SDS011;64988;51.058;17.040;2023-08-24T09:40:00;3.03;;;1.98;;
63350;SDS011;64988;51.058;17.040;2023-08-24T09:45:28;2.40;;;1.90;;
63350;SDS011;64988;51.058;17.040;2023-08-24T09:50:55;2.97;;;2.17;;
63350;SDS011;64988;51.058;17.040;2023-08-24T09:56:24;3.65;;;2.78;;
63350;SDS011;64988;51.058;17.040;2023-08-24T10:01:52;5.30;;;3.00;;
63350;SDS011;64988;51.058;17.040;2023-08-24T10:07:24;2.63;;;2.40;;
63350;SDS011;64988;51.058;17.040;2023-08-24T10:13:03;4.20;;;3.20;;
63350;SDS011;64988;51.058;17.040;2023-08-24T10:18:33;2.87;;;2.63;;
63350;SDS011;64988;51.058;17.040;2023-08-24T10:24:00;4.25;;;2.88;;
63350;SDS011;64988;51.058;17.040;2023-08-24T10:29:29;7.00;;;3.15;;
63350;SDS011;64988;51.058;17.040;2023-08-24T10:34:56;8.35;;;3.28;;
63350;SDS011;64988;51.058;17.040;2023-08-24T10:40:33;6.57;;;3.60;;
63350;SDS011;64988;51.058;17.040;2023-08-24T10:46:01;4.45;;;3.50;;
63350;SDS011;64988;51.058;17.040;2023-08-24T10:51:29;7.18;;;3.22;;
63350;SDS011;64988;51.058;17.040;2023-08-24T10:56:57;3.20;;;2.90;;
63350;SDS011;64988;51.058;17.040;2023-08-24T11:08:01;22.60;;;6.65;;
63350;SDS011;64988;51.058;17.040;2023-08-24T11:13:28;14.80;;;5.18;;
63350;SDS011;64988;51.058;17.040;2023-08-24T11:18:55;19.40;;;5.70;;
63350;SDS011;64988;51.058;17.040;2023-08-24T11:24:22;5.97;;;3.75;;
63350;SDS011;64988;51.058;17.040;2023-08-24T11:29:59;6.55;;;3.70;;
63350;SDS011;64988;51.058;17.040;2023-08-24T11:35:27;3.78;;;3.22;;
63350;SDS011;64988;51.058;17.040;2023-08-24T11:40:55;5.30;;;3.28;;
63350;SDS011;64988;51.058;17.040;2023-08-24T11:46:22;4.18;;;3.40;;
63350;SDS011;64988;51.058;17.040;2023-08-24T11:51:50;4.38;;;3.42;;
63350;SDS011;64988;51.058;17.040;2023-08-24T11:57:19;4.95;;;3.08;;
63350;SDS011;64988;51.058;17.040;2023-08-24T12:02:46;5.97;;;2.90;;
63350;SDS011;64988;51.058;17.040;2023-08-24T12:08:14;7.60;;;2.80;;
63350;SDS011;64988;51.058;17.040;2023-08-24T12:13:48;4.10;;;3.20;;
63350;SDS011;64988;51.058;17.040;2023-08-24T12:19:15;4.00;;;3.03;;
63350;SDS011;64988;51.058;17.040;2023-08-24T12:24:45;4.75;;;2.35;;
63350;SDS011;64988;51.058;17.040;2023-08-24T12:30:13;4.00;;;2.35;;
63350;SDS011;64988;51.058;17.040;2023-08-24T12:35:40;3.03;;;2.70;;
63350;SDS011;64988;51.058;17.040;2023-08-24T12:41:08;3.13;;;2.70;;
63350;SDS011;64988;51.058;17.040;2023-08-24T12:46:35;5.28;;;2.35;;
63350;SDS011;64988;51.058;17.040;2023-08-24T12:52:03;3.88;;;2.30;;
63350;SDS011;64988;51.058;17.040;2023-08-24T12:57:30;4.00;;;2.35;;
63350;SDS011;64988;51.058;17.040;2023-08-24T13:02:56;2.97;;;2.70;;
63350;SDS011;64988;51.058;17.040;2023-08-24T13:08:25;3.55;;;2.70;;
63350;SDS011;64988;51.058;17.040;2023-08-24T13:13:52;2.78;;;2.55;;
63350;SDS011;64988;51.058;17.040;2023-08-24T13:19:20;3.65;;;2.50;;
63350;SDS011;64988;51.058;17.040;2023-08-24T13:24:47;4.03;;;2.38;;
63350;SDS011;64988;51.058;17.040;2023-08-24T13:30:15;5.13;;;2.85;;
63350;SDS011;64988;51.058;17.040;2023-08-24T13:35:42;6.55;;;2.83;;
63350;SDS011;64988;51.058;17.040;2023-08-24T13:41:09;8.57;;;2.80;;
63350;SDS011;64988;51.058;17.040;2023-08-24T13:46:35;6.85;;;2.53;;
63350;SDS011;64988;51.058;17.040;2023-08-24T13:52:02;3.60;;;3.00;;
63350;SDS011;64988;51.058;17.040;2023-08-24T13:57:30;4.15;;;3.42;;
63350;SDS011;64988;51.058;17.040;2023-08-24T14:02:57;6.55;;;3.20;;
63350;SDS011;64988;51.058;17.040;2023-08-24T14:08:23;7.50;;;3.97;;
63350;SDS011;64988;51.058;17.040;2023-08-24T14:13:51;4.72;;;3.05;;
63350;SDS011;64988;51.058;17.040;2023-08-24T14:19:19;4.05;;;3.25;;
63350;SDS011;64988;51.058;17.040;2023-08-24T14:24:46;8.93;;;3.42;;
63350;SDS011;64988;51.058;17.040;2023-08-24T14:30:13;4.18;;;3.20;;
63350;SDS011;64988;51.058;17.040;2023-08-24T14:35:41;6.05;;;3.50;;
63350;SDS011;64988;51.058;17.040;2023-08-24T14:41:09;3.55;;;3.22;;
63350;SDS011;64988;51.058;17.040;2023-08-24T14:46:37;7.00;;;3.22;;
63350;SDS011;64988;51.058;17.040;2023-08-24T14:52:06;4.05;;;2.95;;
63350;SDS011;64988;51.058;17.040;2023-08-24T14:57:33;5.18;;;3.53;;
63350;SDS011;64988;51.058;17.040;2023-08-24T15:03:00;4.45;;;3.60;;
63350;SDS011;64988;51.058;17.040;2023-08-24T15:08:28;6.68;;;3.97;;
63350;SDS011;64988;51.058;17.040;2023-08-24T15:13:55;5.75;;;3.30;;
63350;SDS011;64988;51.058;17.040;2023-08-24T15:19:22;8.05;;;3.40;;
63350;SDS011;64988;51.058;17.040;2023-08-24T15:24:50;5.10;;;3.40;;
63350;SDS011;64988;51.058;17.040;2023-08-24T15:30:17;5.72;;;4.03;;
63350;SDS011;64988;51.058;17.040;2023-08-24T15:35:44;9.80;;;3.75;;
63350;SDS011;64988;51.058;17.040;2023-08-24T15:41:12;5.18;;;3.20;;
63350;SDS011;64988;51.058;17.040;2023-08-24T15:46:39;7.35;;;3.45;;
63350;SDS011;64988;51.058;17.040;2023-08-24T15:52:06;3.40;;;2.92;;
63350;SDS011;64988;51.058;17.040;2023-08-24T15:57:33;3.53;;;3.22;;
63350;SDS011;64988;51.058;17.040;2023-08-24T16:03:00;5.10;;;3.35;;
63350;SDS011;64988;51.058;17.040;2023-08-24T16:08:28;6.03;;;3.55;;
63350;SDS011;64988;51.058;17.040;2023-08-24T16:13:55;6.28;;;3.35;;
63350;SDS011;64988;51.058;17.040;2023-08-24T16:19:22;4.90;;;3.30;;
63350;SDS011;64988;51.058;17.040;2023-08-24T16:24:49;4.05;;;3.50;;
63350;SDS011;64988;51.058;17.040;2023-08-24T16:30:16;7.22;;;3.67;;
63350;SDS011;64988;51.058;17.040;2023-08-24T16:35:47;5.40;;;3.20;;
63350;SDS011;64988;51.058;17.040;2023-08-24T16:41:14;4.25;;;3.33;;
63350;SDS011;64988;51.058;17.040;2023-08-24T16:46:41;3.95;;;3.50;;
63350;SDS011;64988;51.058;17.040;2023-08-24T16:52:09;3.67;;;3.38;;
63350;SDS011;64988;51.058;17.040;2023-08-24T16:57:36;5.13;;;3.50;;
63350;SDS011;64988;51.058;17.040;2023-08-24T17:03:04;4.63;;;3.50;;
63350;SDS011;64988;51.058;17.040;2023-08-24T17:08:32;7.05;;;3.45;;
63350;SDS011;64988;51.058;17.040;2023-08-24T17:13:59;6.88;;;4.40;;
63350;SDS011;64988;51.058;17.040;2023-08-24T17:19:26;6.25;;;3.72;;
63350;SDS011;64988;51.058;17.040;2023-08-24T17:24:53;6.13;;;3.80;;
63350;SDS011;64988;51.058;17.040;2023-08-24T17:30:20;9.23;;;4.00;;
63350;SDS011;64988;51.058;17.040;2023-08-24T17:35:48;11.63;;;4.47;;
63350;SDS011;64988;51.058;17.040;2023-08-24T17:41:15;9.68;;;4.18;;
63350;SDS011;64988;51.058;17.040;2023-08-24T17:46:42;8.80;;;4.43;;
63350;SDS011;64988;51.058;17.040;2023-08-24T17:52:10;5.65;;;4.20;;
63350;SDS011;64988;51.058;17.040;2023-08-24T17:57:39;10.02;;;4.47;;
63350;SDS011;64988;51.058;17.040;2023-08-24T18:03:06;12.25;;;4.28;;
63350;SDS011;64988;51.058;17.040;2023-08-24T18:08:33;14.30;;;4.63;;
63350;SDS011;64988;51.058;17.040;2023-08-24T18:14:16;10.25;;;4.50;;
63350;SDS011;64988;51.058;17.040;2023-08-24T18:19:43;10.10;;;4.57;;
63350;SDS011;64988;51.058;17.040;2023-08-24T18:25:10;7.95;;;5.07;;
63350;SDS011;64988;51.058;17.040;2023-08-24T18:30:38;8.23;;;5.38;;
63350;SDS011;64988;51.058;17.040;2023-08-24T18:36:06;11.38;;;5.68;;
63350;SDS011;64988;51.058;17.040;2023-08-24T18:41:33;6.78;;;4.95;;
63350;SDS011;64988;51.058;17.040;2023-08-24T18:46:59;13.05;;;5.65;;
63350;SDS011;64988;51.058;17.040;2023-08-24T18:52:27;11.10;;;5.85;;
63350;SDS011;64988;51.058;17.040;2023-08-24T18:57:54;8.60;;;5.45;;
63350;SDS011;64988;51.058;17.040;2023-08-24T19:03:22;9.90;;;5.47;;
63350;SDS011;64988;51.058;17.040;2023-08-24T19:08:50;7.13;;;5.75;;
63350;SDS011;64988;51.058;17.040;2023-08-24T19:14:17;11.82;;;5.63;;
63350;SDS011;64988;51.058;17.040;2023-08-24T19:19:46;8.30;;;5.50;;
63350;SDS011;64988;51.058;17.040;2023-08-24T19:25:14;8.82;;;5.45;;
63350;SDS011;64988;51.058;17.040;2023-08-24T19:30:40;6.43;;;5.70;;
63350;SDS011;64988;51.058;17.040;2023-08-24T19:36:08;6.90;;;5.93;;
63350;SDS011;64988;51.058;17.040;2023-08-24T19:41:36;6.32;;;5.72;;
63350;SDS011;64988;51.058;17.040;2023-08-24T19:47:20;6.57;;;5.82;;
63350;SDS011;64988;51.058;17.040;2023-08-24T19:52:47;9.07;;;6.57;;
63350;SDS011;64988;51.058;17.040;2023-08-24T19:58:14;20.27;;;6.88;;
63350;SDS011;64988;51.058;17.040;2023-08-24T20:03:41;12.55;;;6.90;;
63350;SDS011;64988;51.058;17.040;2023-08-24T20:09:08;13.10;;;6.75;;
63350;SDS011;64988;51.058;17.040;2023-08-24T20:14:36;14.15;;;7.15;;
63350;SDS011;64988;51.058;17.040;2023-08-24T20:20:04;15.63;;;9.27;;
63350;SDS011;64988;51.058;17.040;2023-08-24T20:25:31;11.35;;;6.97;;
63350;SDS011;64988;51.058;17.040;2023-08-24T20:30:58;8.55;;;7.22;;
63350;SDS011;64988;51.058;17.040;2023-08-24T20:36:26;11.55;;;7.97;;
63350;SDS011;64988;51.058;17.040;2023-08-24T20:42:10;11.85;;;8.10;;
63350;SDS011;64988;51.058;17.040;2023-08-24T20:47:37;12.50;;;8.73;;
63350;SDS011;64988;51.058;17.040;2023-08-24T20:53:04;23.98;;;15.63;;
63350;SDS011;64988;51.058;17.040;2023-08-24T20:58:33;14.63;;;8.98;;
63350;SDS011;64988;51.058;17.040;2023-08-24T21:03:59;13.10;;;11.02;;
63350;SDS011;64988;51.058;17.040;2023-08-24T21:09:27;18.85;;;13.63;;
63350;SDS011;64988;51.058;17.040;2023-08-24T21:14:54;17.98;;;10.75;;
63350;SDS011;64988;51.058;17.040;2023-08-24T21:20:21;11.60;;;9.90;;
63350;SDS011;64988;51.058;17.040;2023-08-24T21:25:48;16.63;;;8.75;;
63350;SDS011;64988;51.058;17.040;2023-08-24T21:31:15;10.88;;;7.72;;
63350;SDS011;64988;51.058;17.040;2023-08-24T21:36:43;14.45;;;8.38;;
63350;SDS011;64988;51.058;17.040;2023-08-24T21:42:11;9.82;;;7.78;;
63350;SDS011;64988;51.058;17.040;2023-08-24T21:47:38;10.75;;;9.18;;
63350;SDS011;64988;51.058;17.040;2023-08-24T21:53:05;11.30;;;8.93;;
63350;SDS011;64988;51.058;17.040;2023-08-24T21:58:33;11.25;;;8.65;;
63350;SDS011;64988;51.058;17.040;2023-08-24T22:04:01;10.05;;;9.05;;
63350;SDS011;64988;51.058;17.040;2023-08-24T22:09:28;13.68;;;8.88;;
63350;SDS011;64988;51.058;17.040;2023-08-24T22:14:56;10.52;;;8.45;;
63350;SDS011;64988;51.058;17.040;2023-08-24T22:20:24;19.45;;;9.40;;
63350;SDS011;64988;51.058;17.040;2023-08-24T22:25:51;12.45;;;8.88;;
63350;SDS011;64988;51.058;17.040;2023-08-24T22:31:18;11.25;;;9.05;;
63350;SDS011;64988;51.058;17.040;2023-08-24T22:36:45;11.15;;;9.40;;
63350;SDS011;64988;51.058;17.040;2023-08-24T22:42:12;14.27;;;9.07;;
63350;SDS011;64988;51.058;17.040;2023-08-24T22:47:39;14.27;;;9.20;;
63350;SDS011;64988;51.058;17.040;2023-08-24T22:53:06;14.18;;;9.75;;
63350;SDS011;64988;51.058;17.040;2023-08-24T22:58:33;12.98;;;9.73;;
63350;SDS011;64988;51.058;17.040;2023-08-24T23:04:00;12.73;;;10.20;;
63350;SDS011;64988;51.058;17.040;2023-08-24T23:09:27;14.43;;;10.20;;
63350;SDS011;64988;51.058;17.040;2023-08-24T23:14:55;15.75;;;9.90;;
63350;SDS011;64988;51.058;17.040;2023-08-24T23:20:22;14.32;;;9.98;;
63350;SDS011;64988;51.058;17.040;2023-08-24T23:25:49;11.77;;;9.82;;
63350;SDS011;64988;51.058;17.040;2023-08-24T23:31:16;11.05;;;9.88;;
63350;SDS011;64988;51.058;17.040;2023-08-24T23:36:44;12.57;;;9.60;;
63350;SDS011;64988;51.058;17.040;2023-08-24T23:42:11;20.17;;;11.27;;
63350;SDS011;64988;51.058;17.040;2023-08-24T23:47:38;16.70;;;10.68;;
63350;SDS011;64988;51.058;17.040;2023-08-24T23:53:06;13.10;;;10.63;;
63350;SDS011;64988;51.058;17.040;2023-08-24T23:58:33;15.90;;;11.40;;
